Ballinger, TX

1:23 PM CDT on March 29, 2015 (GMT -0500)
Dyess Air Force Base | | Change Station
CLOSE
Current Station
Airport
Location: Abilene Dyess,
Elevation: 1788 ft
Nearby Weather Stations

Elev 1788 ft 32.42 °N, 99.85 °W | Updated 25 minutes ago

Clear
Clear
82 °F
Feels Like 81 °F
N
13
Wind Variable Wind from SW

Today
High -- | Low -- °F
--% Chance of Precip.
Yesterday
High -- | Low -- °F
Precip. -- in
7:32 AM 7:57 PM
Waxing Gibbous, 73% visible
Pressure 29.86 in
Visibility 10.0 miles
Clouds Clear
Heat Index 81 °F
Dew Point 54 °F
Humidity 37%
Rainfall 0.00 in
Snow Depth Not available.
UV 10 out of 12
Pollen 11.50 out of 12
Air Quality Not available.
Flu Activity Not available.
METAR KDYS 291758Z AUTO 22011KT 10SM CLR 28/12 A2998 RMK AO2 DZB1658E07RAB17E19DZB19E40 SLP112 P0000 60000 T02790121 10279 20159 50001 $

More Conditions Fewer Conditions

Pressure 29.86 in
Visibility 10.0 miles
Clouds Clear
Heat Index 81 °F
Dew Point 54 °F
Humidity 37%
Rainfall 0.00 in
Snow Depth Not available.
UV 10 out of 12
Pollen 11.50 out of 12
Air Quality Not available.
Flu Activity Not available.
METAR KDYS 291758Z AUTO 22011KT 10SM CLR 28/12 A2998 RMK AO2 DZB1658E07RAB17E19DZB19E40 SLP112 P0000 60000 T02790121 10279 20159 50001 $

More Conditions Fewer Conditions

10-Day Weather Forecast

Almanac

Astronomy

Mar. 29, 2015 Rise Set
Actual Time
Civil Twilight
Nautical Twilight
Astronomical Twilight
Moon
Length of Visible Light
Length of Day
Tomorrow will be .
, % of the Moon is Illuminated

Today's Extremes

State Highs State Lows

Community

WunderPhotos

Upload Photos

1,809,320 photos uploaded!

WunderBlogs® & News

Nearby

Air Quality

  Air Quality AQ Index Pollutant
Not available.

Snow Depth

Station Depth Elevation

Earthquake Activity

City Distance Mag. Time & Date
Minimum magnitude displayed is 2.5.

Coastal Water Temperatures

Place Temperature

Stations

Nearby Weather Stations

Station Location Temp. Windchill Dew Point Humidity Wind Precip. Elev Updated Type